Time;durP1;ratioP1;P1;durP2;ratioP2;P2;SDS_P1;SDS_P2;PMS_P1;PMS_P2;Temp;Humidity;BMP_temperature;BMP_pressure;BME280_temperature;BME280_humidity;BME280_pressure;Samples;Min_cycle;Max_cycle;Signal;HPM_P1;HPM_P2
2022/05/03 00:00:49;;;;;;;21.10;7.43;;;;;;;9.42;100.00;101546.75;4998885;28;20038;-78
2022/05/03 00:03:21;;;;;;;14.98;8.32;;;;;;;9.37;100.00;101549.75;4983758;28;20042;-78
2022/05/03 00:06:04;;;;;;;16.48;7.95;;;;;;;9.37;100.00;101551.63;4994424;28;20030;-78
2022/05/03 00:08:58;;;;;;;27.45;7.90;;;;;;;9.24;100.00;101542.44;4992119;28;20121;-77
2022/05/03 00:11:32;;;;;;;18.73;7.53;;;;;;;9.15;100.00;101544.78;4989097;28;20051;-77
2022/05/03 00:14:20;;;;;;;17.60;8.32;;;;;;;9.12;100.00;101555.03;5008945;28;20033;-77
2022/05/03 00:16:49;;;;;;;17.80;7.45;;;;;;;9.05;100.00;101545.44;4998289;28;20030;-78
2022/05/03 00:19:15;;;;;;;13.75;7.10;;;;;;;9.12;100.00;101544.97;4979932;28;20490;-78
2022/05/03 00:21:41;;;;;;;24.88;8.07;;;;;;;9.12;100.00;101538.63;4998465;28;20041;-78
2022/05/03 00:24:08;;;;;;;19.58;7.80;;;;;;;9.10;100.00;101538.72;4979216;28;20054;-79
2022/05/03 00:26:37;;;;;;;29.55;7.70;;;;;;;9.10;100.00;101538.72;4995490;28;20027;-79
2022/05/03 00:29:04;;;;;;;21.95;7.97;;;;;;;9.06;100.00;101539.00;4992555;28;20057;-79
2022/05/03 00:31:30;;;;;;;15.82;7.78;;;;;;;9.06;100.00;101531.69;4990142;28;20037;-78
2022/05/03 00:33:57;;;;;;;19.75;8.02;;;;;;;9.00;100.00;101529.31;4993923;28;20093;-79
2022/05/03 00:36:25;;;;;;;13.70;8.35;;;;;;;8.81;100.00;101537.78;4996689;28;20061;-79
2022/05/03 00:38:53;;;;;;;13.30;8.25;;;;;;;8.78;100.00;101536.09;4974027;28;20418;-79
2022/05/03 00:41:41;;;;;;;20.27;8.77;;;;;;;8.82;100.00;101536.78;4993840;28;20030;-80
2022/05/03 00:47:45;;;;;;;18.60;8.15;;;;;;;8.60;100.00;101527.16;4992317;28;20022;-79
2022/05/03 00:50:20;;;;;;;17.88;8.00;;;;;;;8.58;100.00;101537.31;4971667;28;20081;-80
2022/05/03 00:53:12;;;;;;;15.75;8.00;;;;;;;8.48;100.00;101535.19;4991775;28;20026;-80
2022/05/03 00:55:59;;;;;;;21.60;8.32;;;;;;;8.51;100.00;101537.75;4986037;28;20117;-80
2022/05/03 00:58:47;;;;;;;20.77;7.85;;;;;;;8.47;100.00;101537.06;4972658;28;20382;-79
2022/05/03 01:01:35;;;;;;;15.25;8.38;;;;;;;8.46;100.00;101528.00;4995478;28;20031;-80
2022/05/03 01:04:19;;;;;;;14.07;7.53;;;;;;;8.43;100.00;101533.66;4981108;28;20101;-80
2022/05/03 01:06:54;;;;;;;21.05;8.32;;;;;;;8.45;100.00;101537.16;4990358;28;20030;-80
2022/05/03 01:09:47;;;;;;;22.30;8.00;;;;;;;8.42;100.00;101531.84;4986367;28;20489;-79
2022/05/03 01:12:24;;;;;;;20.08;7.72;;;;;;;8.27;100.00;101530.91;4987356;28;20071;-80
2022/05/03 01:15:10;;;;;;;22.77;8.07;;;;;;;8.42;100.00;101533.69;4992626;28;20632;-80
2022/05/03 01:17:51;;;;;;;16.67;7.50;;;;;;;8.31;100.00;101537.03;4995405;28;20050;-79
2022/05/03 01:20:49;;;;;;;16.40;7.97;;;;;;;8.16;100.00;101537.94;4985041;28;20043;-79
2022/05/03 01:23:24;;;;;;;18.15;7.40;;;;;;;8.09;100.00;101534.72;4995467;28;20056;-79
2022/05/03 01:26:08;;;;;;;18.83;7.75;;;;;;;8.06;100.00;101533.03;4989737;28;20046;-79
2022/05/03 01:28:56;;;;;;;15.98;7.97;;;;;;;8.13;100.00;101530.81;4970394;28;20025;-79
2022/05/03 01:31:22;;;;;;;17.15;7.63;;;;;;;8.15;100.00;101526.19;4995652;28;20050;-79
2022/05/03 01:33:53;;;;;;;21.30;8.05;;;;;;;7.99;100.00;101537.09;4989873;28;20034;-79
2022/05/03 01:36:30;;;;;;;18.85;8.50;;;;;;;8.02;100.00;101536.03;4996586;28;20125;-79
2022/05/03 01:39:21;;;;;;;16.42;7.70;;;;;;;8.03;100.00;101532.31;4994905;28;20022;-79
2022/05/03 01:41:51;;;;;;;13.85;7.05;;;;;;;7.83;100.00;101531.63;4989155;28;20034;-80
2022/05/03 01:44:25;;;;;;;20.67;7.88;;;;;;;7.93;100.00;101531.09;4994807;28;20034;-80
2022/05/03 01:46:58;;;;;;;16.02;6.95;;;;;;;7.88;100.00;101532.22;4968699;28;20042;-80
2022/05/03 01:52:29;;;;;;;17.73;7.32;;;;;;;7.83;100.00;101520.72;5001597;28;20050;-80
2022/05/03 01:55:03;;;;;;;14.63;7.25;;;;;;;7.75;100.00;101523.00;4993334;28;20046;-80
2022/05/03 01:57:39;;;;;;;13.13;7.15;;;;;;;7.72;100.00;101523.16;4992638;28;20112;-79
2022/05/03 02:00:09;;;;;;;23.30;7.55;;;;;;;7.67;100.00;101520.72;4994845;28;20034;-80
2022/05/03 02:02:46;;;;;;;17.25;7.38;;;;;;;7.65;100.00;101529.94;4996063;28;20485;-80
2022/05/03 02:05:24;;;;;;;28.25;8.10;;;;;;;7.60;100.00;101526.59;4984115;28;20045;-81
2022/05/03 02:07:57;;;;;;;14.48;6.45;;;;;;;7.54;100.00;101525.06;4991738;28;20030;-80
2022/05/03 02:10:53;;;;;;;13.07;6.40;;;;;;;7.60;100.00;101523.88;4991825;28;20417;-79
2022/05/03 02:14:44;;;;;;;27.20;7.43;;;;;;;7.45;100.00;101523.75;5005759;28;20049;-79
2022/05/03 02:16:45;;;;;;;15.15;7.35;;;;;;;7.51;100.00;101520.69;4979580;28;20117;-79
2022/05/03 02:19:46;;;;;;;20.02;6.75;;;;;;;7.35;100.00;101520.66;5006956;28;20080;-79
2022/05/03 02:22:15;;;;;;;15.85;6.90;;;;;;;7.35;100.00;101522.50;4991422;28;20536;-79
2022/05/03 02:24:57;;;;;;;14.77;6.60;;;;;;;7.36;100.00;101525.16;4992201;28;20026;-80
2022/05/03 02:27:35;;;;;;;15.73;7.53;;;;;;;7.28;100.00;101518.34;4989170;28;20031;-80
2022/05/03 02:30:03;;;;;;;14.43;7.40;;;;;;;7.29;100.00;101525.56;4992740;28;20375;-79
2022/05/03 02:32:45;;;;;;;16.48;7.03;;;;;;;7.25;100.00;101521.25;4997777;28;20122;-79
2022/05/03 02:35:19;;;;;;;;;;;;;;;7.25;100.00;101526.69;4994684;28;20471;-80
2022/05/03 02:37:57;;;;;;;19.63;8.18;;;;;;;7.07;100.00;101521.28;4993137;28;19914;-79
2022/05/03 02:40:30;;;;;;;17.20;7.47;;;;;;;7.13;100.00;101540.03;5000986;28;20038;-81
2022/05/03 02:42:57;;;;;;;19.58;7.57;;;;;;;7.07;100.00;101526.72;4991148;28;20038;-80
2022/05/03 02:45:25;;;;;;;13.43;6.78;;;;;;;7.03;100.00;101530.56;5002350;28;20061;-79
2022/05/03 02:48:18;;;;;;;20.75;7.07;;;;;;;7.04;100.00;101524.16;4997821;28;20085;-80
2022/05/03 02:50:58;;;;;;;13.57;6.95;;;;;;;7.14;100.00;101527.28;4999449;28;20041;-79
2022/05/03 02:53:42;;;;;;;17.15;7.28;;;;;;;7.11;100.00;101527.44;4983554;28;20026;-78
2022/05/03 02:56:22;;;;;;;19.27;6.35;;;;;;;7.04;100.00;101531.47;5016179;28;20049;-79
2022/05/03 02:59:09;;;;;;;14.68;6.65;;;;;;;7.12;100.00;101524.63;5013936;28;20035;-80
2022/05/03 03:02:01;;;;;;;27.30;7.93;;;;;;;7.05;100.00;101530.47;4983407;28;20038;-80
2022/05/03 03:04:51;;;;;;;17.80;7.70;;;;;;;6.95;100.00;101524.66;5003127;28;20050;-80
2022/05/03 03:07:21;;;;;;;17.58;7.95;;;;;;;6.91;100.00;101528.50;4993062;28;20089;-80
2022/05/03 03:09:58;;;;;;;15.50;6.88;;;;;;;6.93;100.00;101515.69;5000359;28;20046;-80
2022/05/03 03:12:44;;;;;;;18.40;7.78;;;;;;;6.91;100.00;101526.66;4983094;28;20128;-81
2022/05/03 03:15:10;;;;;;;11.82;6.13;;;;;;;6.72;100.00;101525.84;5010550;28;20038;-79
2022/05/03 03:17:50;;;;;;;16.50;7.47;;;;;;;6.80;100.00;101523.63;4999479;28;20121;-79
2022/05/03 03:20:22;;;;;;;12.88;6.60;;;;;;;6.82;100.00;101527.13;4999985;28;20035;-80
2022/05/03 03:22:51;;;;;;;16.92;8.52;;;;;;;6.87;100.00;101527.78;4995070;28;20038;-81
2022/05/03 03:25:19;;;;;;;14.68;6.40;;;;;;;6.89;100.00;101527.72;4999746;28;20042;-79
2022/05/03 03:27:47;;;;;;;26.23;8.18;;;;;;;6.91;100.00;101526.66;4995680;28;20058;-79
2022/05/03 03:30:17;;;;;;;17.13;7.30;;;;;;;6.84;100.00;101521.59;4998619;28;20034;-80
2022/05/03 03:32:51;;;;;;;17.48;7.22;;;;;;;6.68;100.00;101527.88;5000458;28;20081;-80
2022/05/03 03:35:20;;;;;;;20.75;8.32;;;;;;;6.74;100.00;101515.75;4999375;28;20401;-79
2022/05/03 03:37:49;;;;;;;16.23;7.57;;;;;;;6.81;100.00;101519.94;4993844;28;20030;-79
2022/05/03 03:40:19;;;;;;;19.98;7.43;;;;;;;6.92;100.00;101522.06;5003578;28;20102;-79
2022/05/03 03:42:46;;;;;;;21.45;7.53;;;;;;;6.94;100.00;101521.06;5005890;28;20038;-79
2022/05/03 03:45:14;;;;;;;17.33;7.32;;;;;;;6.83;100.00;101515.28;4997104;28;20034;-79
2022/05/03 03:47:43;;;;;;;20.50;7.97;;;;;;;6.80;100.00;101521.78;4991271;28;20038;-80
2022/05/03 03:50:09;;;;;;;18.83;7.15;;;;;;;6.76;100.00;101522.91;4983352;28;20414;-78
2022/05/03 03:52:44;;;;;;;17.58;8.00;;;;;;;6.76;100.00;101520.19;4998331;28;20133;-79
2022/05/03 03:55:12;;;;;;;26.15;8.70;;;;;;;6.66;100.00;101518.91;5001081;28;20034;-80
2022/05/03 03:57:38;;;;;;;20.35;8.05;;;;;;;6.60;100.00;101516.50;4994450;28;20120;-80
2022/05/03 04:00:07;;;;;;;19.80;8.75;;;;;;;6.57;100.00;101527.53;4998145;28;20038;-78
2022/05/03 04:02:40;;;;;;;17.75;8.25;;;;;;;6.56;100.00;101520.31;4984580;28;20085;-79
2022/05/03 04:05:15;;;;;;;17.88;7.95;;;;;;;6.49;100.00;101516.16;4992352;28;20101;-78
2022/05/03 04:07:41;;;;;;;26.35;9.02;;;;;;;6.37;100.00;101529.44;4998946;28;20458;-79
2022/05/03 04:10:09;;;;;;;19.25;8.85;;;;;;;6.47;100.00;101531.69;4999278;28;20094;-79
2022/05/03 04:12:35;;;;;;;20.60;8.60;;;;;;;6.23;100.00;101524.72;4996871;28;20117;-80
2022/05/03 04:15:00;;;;;;;22.15;8.93;;;;;;;6.25;100.00;101520.06;4974417;28;20058;-80
2022/05/03 04:17:30;;;;;;;26.27;9.10;;;;;;;6.35;100.00;101519.63;4995383;28;20108;-81
2022/05/03 04:19:58;;;;;;;21.63;8.60;;;;;;;6.39;100.00;101524.78;4980533;28;20423;-80
2022/05/03 04:22:24;;;;;;;27.98;9.30;;;;;;;6.32;100.00;101528.78;5001281;28;20057;-81
2022/05/03 04:24:54;;;;;;;28.55;9.23;;;;;;;6.32;100.00;101526.06;4968563;28;20103;-81
2022/05/03 04:27:23;;;;;;;24.65;9.52;;;;;;;6.28;100.00;101531.72;4998647;28;20038;-80
2022/05/03 04:29:55;;;;;;;20.67;9.50;;;;;;;6.24;100.00;101528.28;4997383;28;20073;-80
2022/05/03 04:32:27;;;;;;;26.45;10.15;;;;;;;6.30;100.00;101528.00;5008964;28;20035;-79
2022/05/03 04:34:56;;;;;;;23.80;10.02;;;;;;;6.40;100.00;101531.13;4978447;28;20043;-79
2022/05/03 04:37:21;;;;;;;24.05;9.98;;;;;;;6.51;100.00;101544.16;4976313;28;20034;-80
2022/05/03 04:39:57;;;;;;;20.05;9.52;;;;;;;6.35;100.00;101544.97;5000157;28;20065;-79
2022/05/03 04:42:25;;;;;;;22.60;8.98;;;;;;;6.37;100.00;101534.00;4993584;28;20045;-80
2022/05/03 04:45:02;;;;;;;25.63;9.85;;;;;;;6.43;100.00;101542.72;4992267;28;20102;-79
2022/05/03 04:47:29;;;;;;;25.60;9.98;;;;;;;6.55;100.00;101540.34;4988472;28;20050;-79
2022/05/03 04:49:58;;;;;;;24.35;9.50;;;;;;;6.40;100.00;101542.00;4994384;28;20030;-81
2022/05/03 04:52:30;;;;;;;23.75;10.10;;;;;;;6.53;100.00;101534.97;4989451;28;20038;-80
2022/05/03 04:54:55;;;;;;;30.48;9.63;;;;;;;6.60;100.00;101541.00;4949738;28;20162;-80
2022/05/03 04:57:21;;;;;;;24.42;9.90;;;;;;;6.63;100.00;101546.28;5000694;28;20034;-80
2022/05/03 04:59:47;;;;;;;25.52;9.48;;;;;;;6.53;100.00;101550.44;4974855;28;20053;-79
2022/05/03 05:02:13;;;;;;;23.90;9.93;;;;;;;6.62;100.00;101542.69;4979601;28;20485;-79
2022/05/03 05:04:48;;;;;;;26.42;10.27;;;;;;;6.70;100.00;101542.25;4991887;28;20034;-81
2022/05/03 05:07:16;;;;;;;28.65;10.65;;;;;;;6.80;100.00;101545.38;4999983;28;20077;-80
2022/05/03 05:10:23;;;;;;;27.58;11.15;;;;;;;6.83;100.00;101547.09;4979398;28;20066;-78
2022/05/03 05:12:38;;;;;;;33.55;11.18;;;;;;;6.89;100.00;101547.63;4997198;28;20046;-79
2022/05/03 05:15:14;;;;;;;32.83;11.43;;;;;;;7.04;100.00;101542.34;4987368;28;20097;-80
2022/05/03 05:17:50;;;;;;;29.15;11.38;;;;;;;7.09;100.00;101552.03;4994015;28;20057;-79
2022/05/03 05:20:25;;;;;;;35.10;12.73;;;;;;;7.12;100.00;101548.28;4988549;28;20030;-78
2022/05/03 05:22:51;;;;;;;34.13;11.95;;;;;;;7.21;100.00;101560.50;4995248;28;20133;-78
2022/05/03 05:25:18;;;;;;;55.70;16.35;;;;;;;7.38;100.00;101562.31;4995029;28;20041;-79
2022/05/03 05:27:44;;;;;;;38.50;13.07;;;;;;;7.55;100.00;101562.28;4998244;28;20061;-79
2022/05/03 05:30:12;;;;;;;36.00;14.05;;;;;;;7.69;100.00;101564.22;4988134;28;20035;-79
2022/05/03 05:32:40;;;;;;;35.60;14.52;;;;;;;7.79;100.00;101556.41;4964116;28;20450;-79
2022/05/03 05:35:06;;;;;;;42.72;14.00;;;;;;;7.93;100.00;101559.25;4994401;28;20061;-79
2022/05/03 05:37:35;;;;;;;41.58;15.25;;;;;;;8.03;100.00;101559.59;4985301;28;20042;-79
2022/05/03 05:40:00;;;;;;;51.15;15.38;;;;;;;8.20;100.00;101559.50;4991361;28;20461;-79
2022/05/03 05:42:27;;;;;;;45.00;15.88;;;;;;;8.09;100.00;101567.44;4989198;28;20114;-77
2022/05/03 05:44:53;;;;;;;49.88;15.65;;;;;;;8.41;100.00;101562.84;4990508;28;20034;-78
2022/05/03 05:47:22;;;;;;;43.28;14.18;;;;;;;8.49;100.00;101567.00;4967299;28;20037;-78
2022/05/03 05:49:47;;;;;;;50.55;15.45;;;;;;;8.63;100.00;101570.66;4993274;28;20046;-79
2022/05/03 05:54:57;;;;;;;51.97;14.93;;;;;;;8.83;100.00;101579.50;4984854;28;20066;-78
2022/05/03 05:57:24;;;;;;;41.67;14.07;;;;;;;8.95;100.00;101575.16;4979753;28;20031;-78
2022/05/03 05:59:51;;;;;;;44.85;14.45;;;;;;;9.29;100.00;101584.88;5009589;28;20022;-79
2022/05/03 06:02:17;;;;;;;44.78;14.85;;;;;;;9.15;100.00;101577.56;4977981;28;20042;-79
2022/05/03 06:04:43;;;;;;;35.55;13.63;;;;;;;9.69;100.00;101582.41;4975736;28;20103;-78
2022/05/03 06:07:13;;;;;;;32.55;12.90;;;;;;;9.89;100.00;101578.38;5004775;28;20042;-79
2022/05/03 06:09:38;;;;;;;31.70;13.00;;;;;;;9.76;100.00;101580.16;4988525;28;20023;-78
2022/05/03 06:12:14;;;;;;;47.85;12.40;;;;;;;9.70;100.00;101580.53;4991783;28;20034;-78
2022/05/03 06:14:40;;;;;;;27.95;12.35;;;;;;;10.12;99.54;101581.47;4995484;28;20042;-79
2022/05/03 06:17:09;;;;;;;25.70;11.82;;;;;;;10.03;99.22;101568.38;4973682;28;20130;-79
2022/05/03 06:19:38;;;;;;;31.13;11.27;;;;;;;10.20;98.10;101586.41;4988683;28;20051;-79
2022/05/03 06:22:04;;;;;;;25.00;11.10;;;;;;;10.92;95.98;101584.38;4990923;28;20062;-78
2022/05/03 06:24:31;;;;;;;20.83;10.38;;;;;;;11.01;95.96;101577.34;4945681;28;20090;-79
2022/05/03 06:27:01;;;;;;;19.17;9.73;;;;;;;11.98;91.02;101592.41;4945917;28;20062;-79
2022/05/03 06:29:35;;;;;;;19.55;10.32;;;;;;;11.47;92.24;101586.94;4987884;28;20042;-78
2022/05/03 06:32:00;;;;;;;16.67;9.38;;;;;;;11.82;89.43;101592.63;4992814;28;20034;-79
2022/05/03 06:34:27;;;;;;;14.77;7.82;;;;;;;12.04;88.47;101597.47;4992871;28;20065;-79
2022/05/03 06:36:54;;;;;;;20.38;8.77;;;;;;;11.87;87.94;101598.69;4979770;28;20053;-79
2022/05/03 06:39:22;;;;;;;15.73;8.20;;;;;;;12.16;87.08;101601.16;4972882;28;20045;-80
2022/05/03 06:41:49;;;;;;;22.45;9.13;;;;;;;12.77;85.04;101594.78;4985280;28;20505;-79
2022/05/03 06:44:25;;;;;;;13.90;7.68;;;;;;;13.36;80.73;101585.66;4992447;28;20150;-78
2022/05/03 06:46:52;;;;;;;16.08;7.68;;;;;;;12.78;83.82;101591.06;4994970;28;20039;-80
2022/05/03 06:49:17;;;;;;;14.60;7.10;;;;;;;13.44;82.49;101596.06;4978839;28;20034;-79
2022/05/03 06:51:43;;;;;;;12.18;6.85;;;;;;;14.01;78.93;101592.34;4991227;28;20037;-78
2022/05/03 06:54:09;;;;;;;10.88;7.10;;;;;;;13.62;79.85;101590.97;5012301;28;20038;-77
2022/05/03 06:56:37;;;;;;;12.10;6.93;;;;;;;13.94;76.47;101589.22;5002349;28;20035;-78
2022/05/03 06:59:04;;;;;;;11.80;6.40;;;;;;;14.39;73.44;101576.41;5002665;28;20030;-78
2022/05/03 07:01:30;;;;;;;20.73;6.75;;;;;;;13.97;74.37;101593.63;4993911;28;20046;-79
2022/05/03 07:03:56;;;;;;;10.27;6.07;;;;;;;13.66;76.91;101584.19;4975279;28;20041;-78
2022/05/03 07:06:22;;;;;;;10.73;6.30;;;;;;;13.91;77.14;101591.38;5010011;28;20042;-77
2022/05/03 07:08:48;;;;;;;9.82;5.78;;;;;;;13.72;75.55;101591.97;4982951;28;20359;-79
2022/05/03 07:11:19;;;;;;;17.25;5.55;;;;;;;14.13;72.96;101604.25;4974953;28;20035;-77
2022/05/03 07:13:48;;;;;;;10.23;5.15;;;;;;;14.06;72.73;101598.34;4988402;28;20461;-81
2022/05/03 07:16:14;;;;;;;12.73;5.75;;;;;;;14.05;73.16;101604.88;5010883;28;20046;-79
2022/05/03 07:24:18;;;;;;;7.93;5.10;;;;;;;15.19;65.58;101598.06;4996413;28;20036;-78
2022/05/03 07:26:54;;;;;;;6.80;4.28;;;;;;;15.24;62.20;101606.81;4973573;28;20065;-80
2022/05/03 07:29:21;;;;;;;7.43;4.93;;;;;;;14.93;62.76;101600.31;5000369;28;20113;-78
2022/05/03 07:31:56;;;;;;;12.27;5.07;;;;;;;15.30;62.19;101605.44;4983709;28;20030;-79
2022/05/03 07:34:30;;;;;;;8.55;4.82;;;;;;;15.61;60.44;101611.88;4977954;28;20027;-79
2022/05/03 07:37:02;;;;;;;12.52;4.63;;;;;;;15.23;61.63;101606.94;4952501;28;20088;-80
2022/05/03 07:39:27;;;;;;;8.57;5.18;;;;;;;15.56;60.69;101605.00;4995027;28;20038;-78
2022/05/03 07:41:54;;;;;;;9.95;4.72;;;;;;;15.92;57.17;101606.41;4980044;28;20030;-80
2022/05/03 07:44:21;;;;;;;7.90;4.82;;;;;;;15.60;57.56;101610.13;4963816;28;20034;-80
2022/05/03 07:46:57;;;;;;;9.82;4.72;;;;;;;16.29;56.91;101611.34;4996281;28;20034;-80
2022/05/03 07:49:33;;;;;;;15.23;5.13;;;;;;;17.24;54.67;101606.28;4974688;28;20035;-80
2022/05/03 07:51:58;;;;;;;11.18;5.10;;;;;;;17.19;53.51;101609.47;4999179;28;20048;-79
2022/05/03 07:54:27;;;;;;;12.95;4.88;;;;;;;16.87;54.80;101607.00;4976824;28;20133;-80
2022/05/03 07:56:54;;;;;;;10.73;5.65;;;;;;;17.87;52.83;101604.84;4980369;28;20346;-81
2022/05/03 07:59:23;;;;;;;18.25;7.03;;;;;;;18.58;48.68;101606.13;4996318;28;20184;-80
2022/05/03 08:01:49;;;;;;;14.50;5.80;;;;;;;17.96;51.42;101602.06;4973833;28;20042;-79
2022/05/03 08:04:15;;;;;;;7.15;4.38;;;;;;;18.41;48.35;101608.72;4989130;28;20038;-78
2022/05/03 08:06:40;;;;;;;6.07;4.20;;;;;;;17.35;50.98;101608.91;4993786;28;20038;-76
2022/05/03 08:09:12;;;;;;;13.03;4.80;;;;;;;17.47;50.25;101592.13;4988794;28;20042;-77
2022/05/03 08:11:38;;;;;;;11.65;5.03;;;;;;;17.36;50.89;101612.53;4975666;28;20059;-77
2022/05/03 08:14:09;;;;;;;8.25;4.72;;;;;;;18.64;45.85;101608.28;4995905;28;20034;-77
2022/05/03 08:16:35;;;;;;;13.55;4.90;;;;;;;18.81;47.40;101607.44;4994356;28;20065;-78
2022/05/03 08:19:01;;;;;;;11.43;4.00;;;;;;;18.58;50.91;101603.34;4994648;28;20402;-77
2022/05/03 08:21:28;;;;;;;8.32;4.57;;;;;;;18.82;47.96;101608.31;4986971;28;20030;-77
2022/05/03 08:24:04;;;;;;;9.07;5.15;;;;;;;19.48;45.99;101615.41;4972679;28;20125;-77
2022/05/03 08:26:33;;;;;;;11.95;4.97;;;;;;;18.74;47.62;101618.31;4996089;28;20034;-79
2022/05/03 08:29:00;;;;;;;11.63;4.55;;;;;;;18.74;47.55;101609.09;4996895;28;20038;-77
2022/05/03 08:31:26;;;;;;;9.13;5.07;;;;;;;19.12;46.11;101608.97;4976552;28;20034;-77
2022/05/03 08:33:51;;;;;;;8.85;4.88;;;;;;;19.52;45.26;101605.69;4987461;28;20362;-77
2022/05/03 08:36:18;;;;;;;11.55;5.63;;;;;;;17.85;49.40;101617.97;4994772;28;20065;-77
2022/05/03 08:44:25;;;;;;;12.48;5.47;;;;;;;18.64;48.43;101603.59;4987802;28;20113;-78
2022/05/03 08:46:53;;;;;;;10.40;5.70;;;;;;;18.26;49.87;101613.03;4953796;28;20035;-77
2022/05/03 08:49:54;;;;;;;10.82;6.35;;;;;;;18.79;49.66;101600.28;4981291;28;20030;-76
2022/05/03 08:52:22;;;;;;;11.68;6.03;;;;;;;19.33;46.64;101609.50;4992419;28;20034;-77
2022/05/03 08:54:49;;;;;;;12.55;6.32;;;;;;;18.70;48.20;101605.75;4964582;28;20031;-77
2022/05/03 08:57:24;;;;;;;9.38;6.10;;;;;;;18.99;49.62;101612.16;4986190;28;20065;-77
2022/05/03 09:00:05;;;;;;;11.20;6.90;;;;;;;19.87;46.74;101620.53;4973287;28;20050;-77
2022/05/03 09:02:33;;;;;;;13.52;6.78;;;;;;;18.23;50.62;101614.19;4989287;28;20026;-77
2022/05/03 09:05:01;;;;;;;15.10;7.32;;;;;;;18.42;50.17;101626.25;4993040;28;20046;-78
2022/05/03 09:07:27;;;;;;;13.35;8.02;;;;;;;18.44;50.32;101611.19;4993361;28;20038;-77
2022/05/03 09:10:16;;;;;;;16.70;7.60;;;;;;;19.25;48.11;101623.31;4993523;28;20077;-77
2022/05/03 09:12:44;;;;;;;14.45;6.68;;;;;;;19.67;49.04;101610.66;4989023;28;20662;-76
2022/05/03 09:15:12;;;;;;;13.60;7.13;;;;;;;20.79;44.08;101619.94;4974893;28;20548;-77
2022/05/03 09:17:39;;;;;;;12.50;7.72;;;;;;;19.44;48.29;101619.50;4992208;28;20045;-77
2022/05/03 09:26:24;;;;;;;10.98;7.35;;;;;;;19.28;47.67;101621.13;4990937;28;20046;-77
2022/05/03 09:28:55;;;;;;;11.20;6.90;;;;;;;19.65;47.34;101614.47;4996682;28;20034;-78
2022/05/03 09:31:37;;;;;;;16.42;7.53;;;;;;;18.70;49.00;101608.53;4975537;28;20045;-77
2022/05/03 09:34:19;;;;;;;11.13;6.60;;;;;;;19.49;47.30;101594.91;4992591;28;20026;-77
2022/05/03 09:36:47;;;;;;;15.77;7.25;;;;;;;19.74;46.98;101600.63;5007150;28;20041;-77
2022/05/03 09:39:25;;;;;;;14.10;7.18;;;;;;;18.93;48.44;101605.34;4989993;28;20034;-78
2022/05/03 09:42:13;;;;;;;11.68;6.90;;;;;;;19.48;48.59;101609.84;4997857;28;20026;-78
2022/05/03 09:44:59;;;;;;;12.07;6.85;;;;;;;20.28;46.46;101606.88;4984338;28;20030;-78
2022/05/03 09:47:29;;;;;;;15.17;6.00;;;;;;;20.58;44.04;101607.34;4982442;28;20144;-76
2022/05/03 09:50:05;;;;;;;12.43;6.90;;;;;;;20.70;45.40;101610.72;5002302;28;20057;-78
2022/05/03 09:52:36;;;;;;;30.25;6.97;;;;;;;19.82;47.59;101609.06;4992793;28;20042;-77
2022/05/03 09:55:08;;;;;;;20.05;6.28;;;;;;;19.98;46.19;101613.84;4995162;28;20030;-77
2022/05/03 09:57:45;;;;;;;13.00;6.35;;;;;;;20.48;44.81;101610.28;4988176;28;20541;-77
2022/05/03 10:00:13;;;;;;;15.73;6.97;;;;;;;20.41;46.62;101614.75;4990996;28;20074;-77
2022/05/03 10:02:43;;;;;;;10.07;5.85;;;;;;;20.15;47.29;101609.22;5009210;28;20030;-77
2022/05/03 10:05:11;;;;;;;13.88;5.60;;;;;;;20.51;45.60;101609.94;4993341;28;20038;-78
2022/05/03 10:07:46;;;;;;;13.93;6.82;;;;;;;19.95;47.46;101608.63;4990553;28;20030;-78
2022/05/03 10:10:16;;;;;;;13.15;7.68;;;;;;;20.62;46.52;101602.31;4976340;28;20057;-78
2022/05/03 10:12:50;;;;;;;14.45;7.03;;;;;;;19.74;46.83;101612.63;4987433;28;20077;-78
2022/05/03 10:21:42;;;;;;;;;;;;;;;20.26;45.82;101597.81;4943730;29;20153;-76
2022/05/03 10:24:11;;;;;;;16.13;6.85;;;;;;;19.65;48.46;101592.22;4939886;29;19926;-76
2022/05/03 10:26:53;;;;;;;17.08;7.78;;;;;;;19.86;47.89;101593.81;4955890;28;20049;-77
2022/05/03 10:29:36;;;;;;;15.18;7.47;;;;;;;19.41;50.28;101604.06;4994258;28;20057;-79
2022/05/03 10:32:09;;;;;;;14.15;7.50;;;;;;;19.96;49.46;101588.13;4993884;28;20034;-77
2022/05/03 10:34:40;;;;;;;15.57;7.32;;;;;;;19.71;48.72;101595.38;4992083;28;20030;-78
2022/05/03 10:37:13;;;;;;;14.82;7.55;;;;;;;20.71;46.74;101592.97;4967760;28;20166;-78
2022/05/03 10:39:57;;;;;;;27.25;9.27;;;;;;;20.13;49.17;101581.59;4994592;28;20076;-78
2022/05/03 10:42:29;;;;;;;20.00;7.78;;;;;;;19.93;48.84;101578.19;4976066;28;20113;-77
2022/05/03 10:45:06;;;;;;;;;;;;;;;20.29;48.35;101578.03;4975500;28;20039;-78
2022/05/03 10:47:47;;;;;;;19.92;6.43;;;;;;;20.15;48.53;101590.66;4992371;28;19936;-78
2022/05/03 10:50:17;;;;;;;18.55;7.30;;;;;;;19.74;50.07;101581.19;4990271;28;20036;-78
2022/05/03 10:53:05;;;;;;;14.75;6.57;;;;;;;19.90;48.75;101580.44;4984033;28;20482;-78
2022/05/03 10:55:38;;;;;;;12.55;6.70;;;;;;;20.53;47.87;101568.91;4994796;28;20111;-79
2022/05/03 10:58:18;;;;;;;11.57;6.35;;;;;;;20.27;48.34;101580.09;4996332;28;20517;-78
2022/05/03 11:01:11;;;;;;;16.30;6.30;;;;;;;19.61;48.70;101571.38;4990129;28;20026;-78
2022/05/03 11:03:54;;;;;;;12.73;5.43;;;;;;;19.85;49.99;101569.81;4989076;28;20036;-79
2022/05/03 11:06:23;;;;;;;9.75;5.05;;;;;;;19.96;49.40;101571.44;4992076;28;20553;-77
2022/05/03 11:09:05;;;;;;;9.30;5.03;;;;;;;20.64;48.47;101564.94;4992898;28;20092;-78
2022/05/03 11:11:34;;;;;;;15.95;5.78;;;;;;;20.78;50.11;101573.69;4986554;28;20260;-78
2022/05/03 11:14:01;;;;;;;9.55;5.32;;;;;;;20.21;48.37;101561.31;4997280;28;20665;-77
2022/05/03 11:16:34;;;;;;;17.15;6.93;;;;;;;19.71;49.12;101560.16;5014560;28;20030;-77
2022/05/03 11:19:14;;;;;;;19.42;7.75;;;;;;;19.72;49.55;101553.56;4969580;28;20523;-79
2022/05/03 11:21:48;;;;;;;17.60;8.50;;;;;;;20.71;48.15;101565.13;4973026;28;20049;-78
2022/05/03 11:24:24;;;;;;;14.60;6.75;;;;;;;20.52;47.90;101556.00;4995146;28;20031;-78
2022/05/03 11:27:01;;;;;;;15.32;7.10;;;;;;;20.19;47.49;101552.25;4993127;28;20030;-78
2022/05/03 11:29:34;;;;;;;16.90;7.18;;;;;;;20.76;47.54;101548.81;4984683;28;20034;-78
2022/05/03 11:32:01;;;;;;;26.05;8.50;;;;;;;19.99;49.41;101541.41;5006405;28;20034;-78
2022/05/03 11:34:31;;;;;;;18.95;9.40;;;;;;;20.05;48.37;101548.19;4997358;28;20392;-78
2022/05/03 11:36:58;;;;;;;23.45;9.00;;;;;;;19.74;49.69;101545.94;4994576;28;20125;-78
2022/05/03 11:39:26;;;;;;;19.70;5.53;;;;;;;19.95;50.42;101536.34;4991026;28;20049;-78
2022/05/03 11:41:52;;;;;;;16.70;6.63;;;;;;;20.13;49.83;101528.75;4977977;28;20043;-79
2022/05/03 11:44:20;;;;;;;15.05;6.60;;;;;;;20.15;50.26;101529.50;4971609;28;20038;-78
2022/05/03 11:46:48;;;;;;;23.60;9.70;;;;;;;20.04;48.68;101528.91;4983589;28;20773;-80
2022/05/03 11:49:17;;;;;;;22.85;8.73;;;;;;;20.38;48.94;101526.94;4992321;28;20034;-78
2022/05/03 11:57:42;;;;;;;26.45;10.77;;;;;;;20.03;48.69;101530.81;5000199;28;20045;-78
2022/05/03 12:00:11;;;;;;;21.17;9.35;;;;;;;20.18;51.24;101514.38;4989013;28;20039;-78
2022/05/03 12:02:41;;;;;;;25.88;10.20;;;;;;;19.68;52.59;101513.25;5001242;28;20470;-77
2022/05/03 12:05:21;;;;;;;23.10;10.00;;;;;;;19.08;54.11;101514.91;5002857;28;20066;-78
2022/05/03 12:07:51;;;;;;;21.50;10.63;;;;;;;19.13;52.55;101506.09;4979077;28;20066;-75
2022/05/03 12:10:33;;;;;;;22.15;10.77;;;;;;;18.49;53.25;101508.97;4995596;28;20065;-78
2022/05/03 12:13:06;;;;;;;28.08;11.07;;;;;;;18.91;53.29;101505.59;5012644;28;20532;-78
2022/05/03 12:15:39;;;;;;;27.33;11.65;;;;;;;19.05;53.33;101501.38;4990079;28;20149;-77
2022/05/03 12:18:18;;;;;;;25.27;9.95;;;;;;;19.52;51.27;101507.59;4988428;28;20030;-77
2022/05/03 12:20:53;;;;;;;33.47;10.95;;;;;;;19.58;52.21;101496.69;4979872;28;20043;-77